createdAt,value
2018-07-09T00:00:37.308Z,17.80
2018-07-09T00:03:08.811Z,17.70
2018-07-09T00:05:40.531Z,17.80
2018-07-09T00:08:10.003Z,17.80
2018-07-09T00:10:50.193Z,17.80
2018-07-09T00:13:18.433Z,17.80
2018-07-09T00:15:46.667Z,17.80
2018-07-09T00:18:15.431Z,17.70
2018-07-09T00:20:43.990Z,17.70
2018-07-09T00:23:12.303Z,17.70
2018-07-09T00:25:40.504Z,17.70
2018-07-09T00:28:08.690Z,17.60
2018-07-09T00:30:36.879Z,17.60
2018-07-09T00:33:05.426Z,17.60
2018-07-09T00:35:33.643Z,17.50
2018-07-09T00:38:02.222Z,17.40
2018-07-09T00:40:30.414Z,17.40
2018-07-09T00:42:58.625Z,17.30
2018-07-09T00:45:26.853Z,17.40
2018-07-09T00:47:55.496Z,17.40
2018-07-09T00:50:23.894Z,17.30
2018-07-09T00:52:52.411Z,17.20
2018-07-09T00:55:20.626Z,17.20
2018-07-09T00:57:48.826Z,17.20
2018-07-09T01:00:17.266Z,17.20
2018-07-09T01:02:45.475Z,17.10
2018-07-09T01:05:13.635Z,17.10
2018-07-09T01:07:41.812Z,17.10
2018-07-09T01:10:10.250Z,17.10
2018-07-09T01:12:38.702Z,17.10
2018-07-09T01:15:06.858Z,17.00
2018-07-09T01:17:35.019Z,17.00
2018-07-09T01:20:03.222Z,16.90
2018-07-09T01:22:31.505Z,16.90
2018-07-09T01:24:59.677Z,17.00
2018-07-09T01:27:27.831Z,16.90
2018-07-09T01:29:58.004Z,17.00
2018-07-09T01:32:26.163Z,16.90
2018-07-09T01:34:54.318Z,16.90
2018-07-09T01:37:22.479Z,17.00
2018-07-09T01:39:50.942Z,16.90
2018-07-09T01:42:19.112Z,16.90
2018-07-09T01:44:47.491Z,16.90
2018-07-09T01:47:15.674Z,16.90
2018-07-09T01:49:43.854Z,16.90
2018-07-09T01:52:12.006Z,16.90
2018-07-09T01:54:40.170Z,16.90
2018-07-09T01:57:08.371Z,16.90
2018-07-09T01:59:36.590Z,16.80
2018-07-09T02:02:04.961Z,16.80
2018-07-09T02:04:33.134Z,16.70
2018-07-09T02:07:01.287Z,16.70
2018-07-09T02:09:29.447Z,16.60
2018-07-09T02:11:57.594Z,16.60
2018-07-09T02:14:25.759Z,16.60
2018-07-09T02:16:53.910Z,16.50
2018-07-09T02:19:22.079Z,16.50
2018-07-09T02:21:50.235Z,16.60
2018-07-09T02:24:18.403Z,16.70
2018-07-09T02:26:46.560Z,16.70
2018-07-09T02:29:14.719Z,16.60
2018-07-09T02:31:42.870Z,16.50
2018-07-09T02:36:39.276Z,16.60
2018-07-09T02:39:08.138Z,16.60
2018-07-09T02:41:36.317Z,16.60
2018-07-09T02:44:04.606Z,16.60
2018-07-09T02:46:32.774Z,16.50
2018-07-09T02:49:01.029Z,16.50
2018-07-09T02:51:29.156Z,16.50
2018-07-09T02:53:57.307Z,16.50
2018-07-09T02:56:25.539Z,16.40
2018-07-09T02:58:53.695Z,16.40
2018-07-09T03:01:21.852Z,16.30
2018-07-09T03:03:50.071Z,16.40
2018-07-09T03:06:18.259Z,16.40
2018-07-09T03:08:46.431Z,16.30
2018-07-09T03:11:14.677Z,16.30
2018-07-09T03:13:43.031Z,16.30
2018-07-09T03:16:11.242Z,16.30
2018-07-09T03:18:39.410Z,16.20
2018-07-09T03:21:07.606Z,16.20
2018-07-09T03:23:35.794Z,16.20
2018-07-09T03:26:03.977Z,16.20
2018-07-09T03:28:32.167Z,16.20
2018-07-09T03:31:00.359Z,16.20
2018-07-09T03:33:28.538Z,16.10
2018-07-09T03:35:56.723Z,16.20
2018-07-09T03:38:24.908Z,16.20
2018-07-09T03:40:53.093Z,16.10
2018-07-09T03:43:21.275Z,16.10
2018-07-09T03:45:49.597Z,16.10
2018-07-09T03:48:17.874Z,16.00
2018-07-09T03:50:46.092Z,16.00
2018-07-09T03:53:14.279Z,16.00
2018-07-09T03:55:42.458Z,16.10
2018-07-09T03:58:10.955Z,16.10
2018-07-09T04:00:39.125Z,16.10
2018-07-09T04:05:35.519Z,16.10
2018-07-09T04:08:03.683Z,16.20
2018-07-09T04:10:31.830Z,16.20
2018-07-09T04:12:59.986Z,16.20
2018-07-09T04:17:56.126Z,16.30
2018-07-09T04:20:24.305Z,16.30
2018-07-09T04:22:52.509Z,16.40
2018-07-09T04:25:20.675Z,16.50
2018-07-09T04:27:48.833Z,16.50
2018-07-09T04:30:17.007Z,16.60
2018-07-09T04:32:45.182Z,16.60
2018-07-09T04:35:13.329Z,16.70
2018-07-09T04:37:42.076Z,16.70
2018-07-09T04:40:10.219Z,16.80
2018-07-09T04:42:38.391Z,16.80
2018-07-09T04:45:06.567Z,16.90
2018-07-09T04:47:34.739Z,17.00
2018-07-09T04:50:03.305Z,17.10
2018-07-09T04:52:31.457Z,17.10
2018-07-09T04:54:59.646Z,17.20
2018-07-09T04:57:27.856Z,17.20
2018-07-09T04:59:56.048Z,17.30
2018-07-09T05:02:24.229Z,17.30
2018-07-09T05:04:52.655Z,17.30
2018-07-09T05:07:21.122Z,17.40
2018-07-09T05:09:49.278Z,17.50
2018-07-09T05:12:17.435Z,17.60
2018-07-09T05:14:46.091Z,17.60
2018-07-09T05:17:14.263Z,17.70
2018-07-09T05:19:42.410Z,17.70
2018-07-09T05:22:10.706Z,17.80
2018-07-09T05:24:39.054Z,17.90
2018-07-09T05:27:07.635Z,17.90
2018-07-09T05:29:35.799Z,18.00
2018-07-09T05:32:04.140Z,18.10
2018-07-09T05:34:32.371Z,18.10
2018-07-09T05:37:00.551Z,18.20
2018-07-09T05:39:28.736Z,18.20
2018-07-09T05:41:56.890Z,18.30
2018-07-09T05:44:25.291Z,18.30
2018-07-09T05:46:53.531Z,18.40
2018-07-09T05:49:21.711Z,18.50
2018-07-09T05:51:49.878Z,18.70
2018-07-09T05:54:18.062Z,18.70
2018-07-09T05:56:46.236Z,18.80
2018-07-09T05:59:14.399Z,18.90
2018-07-09T06:01:42.563Z,19.00
2018-07-09T06:04:10.743Z,19.00
2018-07-09T06:09:07.686Z,19.10
2018-07-09T06:11:35.885Z,19.30
2018-07-09T06:14:04.046Z,19.30
2018-07-09T06:16:32.271Z,19.30
2018-07-09T06:19:00.703Z,19.40
2018-07-09T06:23:57.263Z,19.40
2018-07-09T06:26:25.439Z,19.50
2018-07-09T06:28:53.632Z,19.60
2018-07-09T06:31:22.086Z,19.60
2018-07-09T06:33:50.250Z,19.70
2018-07-09T06:36:18.443Z,19.80
2018-07-09T06:38:46.643Z,19.80
2018-07-09T06:41:14.855Z,19.90
2018-07-09T06:43:43.018Z,20.00
2018-07-09T06:46:11.223Z,20.00
2018-07-09T06:48:39.395Z,20.10
2018-07-09T06:51:07.862Z,20.10
2018-07-09T06:53:36.138Z,20.20
2018-07-09T06:56:04.398Z,20.20
2018-07-09T06:58:32.608Z,20.30
2018-07-09T07:01:00.823Z,20.40
2018-07-09T07:03:28.993Z,20.50
2018-07-09T07:05:57.198Z,20.50
2018-07-09T07:08:25.403Z,20.60
2018-07-09T07:10:53.578Z,20.70
2018-07-09T07:13:21.774Z,20.80
2018-07-09T07:15:49.949Z,20.80
2018-07-09T07:18:18.138Z,20.80
2018-07-09T07:20:46.318Z,20.90
2018-07-09T07:23:14.539Z,20.80
2018-07-09T07:25:42.738Z,20.90
2018-07-09T07:28:10.951Z,21.00
2018-07-09T07:30:39.449Z,21.10
2018-07-09T07:33:07.648Z,21.20
2018-07-09T07:35:36.102Z,21.20
2018-07-09T07:38:04.514Z,21.30
2018-07-09T07:40:32.739Z,21.40
2018-07-09T07:43:00.963Z,21.50
2018-07-09T07:45:29.166Z,21.60
2018-07-09T07:47:57.338Z,21.60
2018-07-09T07:50:25.687Z,21.70
2018-07-09T07:52:53.758Z,21.80
2018-07-09T07:55:21.946Z,21.80
2018-07-09T07:57:50.123Z,21.80
2018-07-09T08:00:18.324Z,21.90
2018-07-09T08:02:46.549Z,22.00
2018-07-09T08:05:14.697Z,22.10
2018-07-09T08:07:42.870Z,22.20
2018-07-09T08:10:11.078Z,22.20
2018-07-09T08:13:26.873Z,22.30
2018-07-09T08:15:07.811Z,22.30
2018-07-09T08:17:36.025Z,22.30
2018-07-09T08:20:04.312Z,22.30
2018-07-09T08:22:32.519Z,22.40
2018-07-09T08:25:01.526Z,22.50
2018-07-09T08:27:29.586Z,22.60
2018-07-09T08:29:57.782Z,22.70
2018-07-09T08:32:26.259Z,22.70
2018-07-09T08:34:54.417Z,22.70
2018-07-09T08:37:22.587Z,22.70
2018-07-09T08:39:50.747Z,22.70
2018-07-09T08:42:18.907Z,22.80
2018-07-09T08:44:47.065Z,22.90
2018-07-09T08:47:15.262Z,23.00
2018-07-09T08:49:43.392Z,23.10
2018-07-09T08:52:11.555Z,23.20
2018-07-09T08:54:39.711Z,23.30
2018-07-09T08:57:07.912Z,23.40
2018-07-09T08:59:36.079Z,23.40
2018-07-09T09:02:04.272Z,23.50
2018-07-09T09:04:32.442Z,23.50
2018-07-09T09:07:00.611Z,23.60
2018-07-09T09:09:29.358Z,23.60
2018-07-09T09:11:57.515Z,23.60
2018-07-09T09:14:25.680Z,23.80
2018-07-09T09:16:53.830Z,23.80
2018-07-09T09:19:21.992Z,23.80
2018-07-09T09:21:50.138Z,23.90
2018-07-09T09:24:18.314Z,23.90
2018-07-09T09:26:46.467Z,24.10
2018-07-09T09:29:14.621Z,24.20
2018-07-09T09:31:42.779Z,24.30
2018-07-09T09:34:10.934Z,24.30
2018-07-09T09:36:39.124Z,24.30
2018-07-09T09:39:08.244Z,24.20
2018-07-09T09:41:36.706Z,24.30
2018-07-09T09:44:05.460Z,24.40
2018-07-09T09:46:33.811Z,24.40
2018-07-09T09:49:02.114Z,24.40
2018-07-09T09:51:30.271Z,24.50
2018-07-09T09:53:58.715Z,24.60
2018-07-09T09:56:27.028Z,24.70
2018-07-09T09:58:55.333Z,24.80
2018-07-09T10:01:23.747Z,24.80
2018-07-09T10:03:51.967Z,24.80
2018-07-09T10:06:20.402Z,24.80
2018-07-09T10:08:48.589Z,24.80
2018-07-09T10:11:17.619Z,25.00
2018-07-09T10:13:46.210Z,25.00
2018-07-09T10:16:14.621Z,25.10
2018-07-09T10:18:43.179Z,25.20
2018-07-09T10:21:12.817Z,25.40
2018-07-09T10:23:41.528Z,25.50
2018-07-09T10:26:09.936Z,25.60
2018-07-09T10:28:38.484Z,25.70
2018-07-09T10:31:08.516Z,25.80
2018-07-09T10:33:36.729Z,25.90
2018-07-09T10:36:05.166Z,25.90
2018-07-09T10:38:33.362Z,26.00
2018-07-09T10:41:01.872Z,25.90
2018-07-09T10:43:30.062Z,26.00
2018-07-09T10:45:58.263Z,26.10
2018-07-09T10:48:26.442Z,26.10
2018-07-09T10:50:54.639Z,26.20
2018-07-09T10:53:22.821Z,26.30
2018-07-09T10:55:51.075Z,26.20
2018-07-09T10:58:19.278Z,26.10
2018-07-09T11:00:47.537Z,26.00
2018-07-09T11:03:15.733Z,26.10
2018-07-09T11:05:43.923Z,26.10
2018-07-09T11:08:12.117Z,26.10
2018-07-09T11:10:40.448Z,26.10
2018-07-09T11:13:08.635Z,26.20
2018-07-09T11:15:36.795Z,26.30
2018-07-09T11:18:04.956Z,26.50
2018-07-09T11:20:33.438Z,26.70
2018-07-09T11:23:01.667Z,26.70
2018-07-09T11:25:30.105Z,26.70
2018-07-09T11:27:58.268Z,26.80
2018-07-09T11:30:26.539Z,26.90
2018-07-09T11:35:22.982Z,27.10
2018-07-09T11:37:51.138Z,27.20
2018-07-09T11:40:19.434Z,27.10
2018-07-09T11:42:47.583Z,27.00
2018-07-09T11:45:15.739Z,26.70
2018-07-09T11:47:44.162Z,26.60
2018-07-09T11:50:12.346Z,26.40
2018-07-09T11:52:40.545Z,26.40
2018-07-09T11:55:09.027Z,26.50
2018-07-09T11:57:37.754Z,26.60
2018-07-09T12:00:06.071Z,26.70
2018-07-09T12:02:34.206Z,26.90
2018-07-09T12:05:02.390Z,27.00
2018-07-09T12:09:58.490Z,26.90
2018-07-09T12:12:26.654Z,26.70
2018-07-09T12:14:54.843Z,26.60
2018-07-09T12:17:22.994Z,26.60
2018-07-09T12:19:51.150Z,26.60
2018-07-09T12:22:19.305Z,26.60
2018-07-09T12:24:48.395Z,26.70
2018-07-09T12:27:16.585Z,26.70
2018-07-09T12:29:44.737Z,26.70
2018-07-09T12:34:41.014Z,26.80
2018-07-09T12:37:09.164Z,26.90
2018-07-09T12:39:37.324Z,26.90
2018-07-09T12:42:05.486Z,26.90
2018-07-09T12:44:33.638Z,26.80
2018-07-09T12:47:01.790Z,26.80
2018-07-09T12:49:29.975Z,26.70
2018-07-09T12:51:58.131Z,26.60
2018-07-09T12:54:26.278Z,26.50
2018-07-09T12:56:54.449Z,26.50
2018-07-09T12:59:22.674Z,26.40
2018-07-09T13:01:50.960Z,26.40
2018-07-09T13:04:19.314Z,26.40
2018-07-09T13:06:47.498Z,26.40
2018-07-09T13:09:15.893Z,26.30
2018-07-09T13:11:44.338Z,26.30
2018-07-09T13:14:12.514Z,26.20
2018-07-09T13:16:40.711Z,26.20
2018-07-09T13:19:08.932Z,26.10
2018-07-09T13:21:37.173Z,26.30
2018-07-09T13:24:05.400Z,26.50
2018-07-09T13:26:33.602Z,26.70
2018-07-09T13:29:01.848Z,26.90
2018-07-09T13:31:30.062Z,27.00
2018-07-09T13:33:58.268Z,27.20
2018-07-09T13:36:26.616Z,27.30
2018-07-09T13:38:54.820Z,27.50
2018-07-09T13:41:23.036Z,27.60
2018-07-09T13:43:51.269Z,27.60
2018-07-09T13:46:19.530Z,27.70
2018-07-09T13:48:47.729Z,27.70
2018-07-09T13:51:15.934Z,27.80
2018-07-09T13:53:44.192Z,27.80
2018-07-09T13:56:12.482Z,27.80
2018-07-09T13:58:40.684Z,27.80
2018-07-09T14:01:09.067Z,27.80
2018-07-09T14:03:37.279Z,27.70
2018-07-09T14:06:05.442Z,27.70
2018-07-09T14:08:33.780Z,27.70
2018-07-09T14:11:01.926Z,27.80
2018-07-09T14:13:30.103Z,27.70
2018-07-09T14:15:58.263Z,27.70
2018-07-09T14:18:26.429Z,27.70
2018-07-09T14:20:54.578Z,27.70
2018-07-09T14:23:23.009Z,27.90
2018-07-09T14:25:51.158Z,27.90
2018-07-09T14:28:19.314Z,27.90
2018-07-09T14:30:47.468Z,28.00
2018-07-09T14:33:15.622Z,28.10
2018-07-09T14:35:43.844Z,28.10
2018-07-09T14:38:12.007Z,28.10
2018-07-09T14:40:40.198Z,28.10
2018-07-09T14:43:08.400Z,28.10
2018-07-09T14:45:36.554Z,28.10
2018-07-09T14:48:04.735Z,28.00
2018-07-09T14:50:33.525Z,28.10
2018-07-09T14:53:01.670Z,28.10
2018-07-09T14:55:29.825Z,28.10
2018-07-09T14:57:57.979Z,28.10
2018-07-09T15:00:26.141Z,28.10
2018-07-09T15:02:54.322Z,28.10
2018-07-09T15:05:22.499Z,28.10
2018-07-09T15:07:50.690Z,28.20
2018-07-09T15:10:19.111Z,28.10
2018-07-09T15:15:15.887Z,28.00
2018-07-09T15:17:44.087Z,28.00
2018-07-09T15:20:12.822Z,27.90
2018-07-09T15:22:41.075Z,27.90
2018-07-09T15:25:09.292Z,27.80
2018-07-09T15:27:38.473Z,27.80
2018-07-09T15:30:06.646Z,27.70
2018-07-09T15:32:34.874Z,27.50
2018-07-09T15:35:03.140Z,27.50
2018-07-09T15:37:31.513Z,27.40
2018-07-09T15:39:59.699Z,27.30
2018-07-09T15:42:27.897Z,27.20
2018-07-09T15:44:56.370Z,27.30
2018-07-09T15:47:24.694Z,27.30
2018-07-09T15:49:52.877Z,27.30
2018-07-09T15:52:21.067Z,27.20
2018-07-09T15:54:49.839Z,27.20
2018-07-09T15:57:18.020Z,27.20
2018-07-09T15:59:46.214Z,27.20
2018-07-09T16:02:14.433Z,27.20
2018-07-09T16:04:42.646Z,27.20
2018-07-09T16:07:10.828Z,27.20
2018-07-09T16:09:39.011Z,27.10
2018-07-09T16:12:07.180Z,27.00
2018-07-09T16:14:35.342Z,26.90
2018-07-09T16:17:03.854Z,26.90
2018-07-09T16:19:32.030Z,26.80
2018-07-09T16:22:00.207Z,26.80
2018-07-09T16:24:28.530Z,26.80
2018-07-09T16:26:56.683Z,26.70
2018-07-09T16:29:25.055Z,26.70
2018-07-09T16:31:52.997Z,26.80
2018-07-09T16:34:21.150Z,26.80
2018-07-09T16:36:49.331Z,26.80
2018-07-09T16:39:17.806Z,26.80
2018-07-09T16:41:45.958Z,26.70
2018-07-09T16:44:14.129Z,26.70
2018-07-09T16:46:42.396Z,26.70
2018-07-09T16:49:10.511Z,26.60
2018-07-09T16:51:38.695Z,26.60
2018-07-09T16:54:06.870Z,26.60
2018-07-09T16:56:35.031Z,26.60
2018-07-09T16:59:03.194Z,26.50
2018-07-09T17:01:31.575Z,26.50
2018-07-09T17:03:59.739Z,26.50
2018-07-09T17:06:27.916Z,26.50
2018-07-09T17:08:56.338Z,26.40
2018-07-09T17:11:24.486Z,26.40
2018-07-09T17:13:52.651Z,26.40
2018-07-09T17:18:49.067Z,26.30
2018-07-09T17:21:17.277Z,26.30
2018-07-09T17:23:45.468Z,26.30
2018-07-09T17:26:13.710Z,26.20
2018-07-09T17:28:41.819Z,26.10
2018-07-09T17:31:09.978Z,26.10
2018-07-09T17:33:38.384Z,26.10
2018-07-09T17:36:06.542Z,26.10
2018-07-09T17:38:34.713Z,26.00
2018-07-09T17:41:02.894Z,26.00
2018-07-09T17:43:31.295Z,26.00
2018-07-09T17:45:59.472Z,25.90
2018-07-09T17:48:27.626Z,26.00
2018-07-09T17:50:55.807Z,26.00
2018-07-09T17:53:23.963Z,25.90
2018-07-09T17:55:52.131Z,25.90
2018-07-09T17:58:20.378Z,26.00
2018-07-09T18:00:48.598Z,26.00
2018-07-09T18:03:16.763Z,26.00
2018-07-09T18:05:44.986Z,26.00
2018-07-09T18:08:13.494Z,25.90
2018-07-09T18:10:41.691Z,25.90
2018-07-09T18:13:10.145Z,25.90
2018-07-09T18:15:38.383Z,25.80
2018-07-09T18:18:06.535Z,25.80
2018-07-09T18:20:34.730Z,25.70
2018-07-09T18:23:02.917Z,25.70
2018-07-09T18:25:31.120Z,25.70
2018-07-09T18:27:59.286Z,25.70
2018-07-09T18:30:27.470Z,25.60
2018-07-09T18:32:55.768Z,25.60
2018-07-09T18:35:23.869Z,25.60
2018-07-09T18:37:52.204Z,25.60
2018-07-09T18:40:20.407Z,25.60
2018-07-09T18:42:48.598Z,25.60
2018-07-09T18:45:16.795Z,25.60
2018-07-09T18:47:45.078Z,25.60
2018-07-09T18:50:13.249Z,25.50
2018-07-09T18:52:41.451Z,25.30
2018-07-09T18:55:09.646Z,25.30
2018-07-09T18:57:37.842Z,25.20
2018-07-09T19:00:06.081Z,25.20
2018-07-09T19:02:34.244Z,25.10
2018-07-09T19:05:02.709Z,25.10
2018-07-09T19:07:30.958Z,25.00
2018-07-09T19:09:59.267Z,25.00
2018-07-09T19:12:34.639Z,24.90
2018-07-09T19:15:04.830Z,24.80
2018-07-09T19:18:11.055Z,24.70
2018-07-09T19:24:12.754Z,24.50
2018-07-09T19:26:40.738Z,24.30
2018-07-09T19:29:07.925Z,24.20
2018-07-09T19:31:35.122Z,24.10
2018-07-09T19:34:02.332Z,24.10
2018-07-09T19:36:29.565Z,23.90
2018-07-09T19:38:56.690Z,23.90
2018-07-09T19:41:23.891Z,23.90
2018-07-09T19:43:51.658Z,23.80
2018-07-09T19:46:19.193Z,23.80
2018-07-09T19:48:46.381Z,23.60
2018-07-09T19:51:13.574Z,23.60
2018-07-09T19:53:40.766Z,23.50
2018-07-09T19:56:07.971Z,23.50
2018-07-09T19:58:35.155Z,23.50
2018-07-09T20:01:02.354Z,23.50
2018-07-09T20:03:29.591Z,23.50
2018-07-09T20:05:56.776Z,23.50
2018-07-09T20:08:28.202Z,23.50
2018-07-09T20:11:00.799Z,23.40
2018-07-09T20:14:33.322Z,23.40
2018-07-09T20:17:05.827Z,23.40
2018-07-09T20:19:33.049Z,23.30
2018-07-09T20:22:00.243Z,23.30
2018-07-09T20:24:27.456Z,23.30
2018-07-09T20:26:54.712Z,23.30
2018-07-09T20:34:16.915Z,23.30
2018-07-09T20:36:44.106Z,23.30
2018-07-09T20:39:11.295Z,23.30
2018-07-09T20:41:38.481Z,23.30
2018-07-09T20:44:05.674Z,23.20
2018-07-09T20:46:32.883Z,23.20
2018-07-09T20:49:00.075Z,23.10
2018-07-09T20:51:27.264Z,23.20
2018-07-09T20:53:54.459Z,23.20
2018-07-09T20:56:21.651Z,23.10
2018-07-09T20:58:49.090Z,23.10
2018-07-09T21:01:16.278Z,23.10
2018-07-09T21:03:43.479Z,23.10
2018-07-09T21:08:38.262Z,23.10
2018-07-09T21:11:05.460Z,23.10
2018-07-09T21:13:32.883Z,23.10
2018-07-09T21:16:00.191Z,23.00
2018-07-09T21:18:27.307Z,23.10
2018-07-09T21:20:54.746Z,23.10
2018-07-09T21:23:22.206Z,23.10
2018-07-09T21:25:49.401Z,23.10
2018-07-09T21:28:16.607Z,23.00
2018-07-09T21:30:43.794Z,23.00
2018-07-09T21:33:10.986Z,23.00
2018-07-09T21:35:38.171Z,23.00
2018-07-09T21:38:05.390Z,22.90
2018-07-09T21:40:32.547Z,22.90
2018-07-09T21:42:59.747Z,22.80
2018-07-09T21:45:26.956Z,22.70
2018-07-09T21:47:59.218Z,22.70
2018-07-09T21:50:21.371Z,22.60
2018-07-09T21:52:48.562Z,22.60
2018-07-09T21:55:15.742Z,22.60
2018-07-09T22:00:10.391Z,22.60
2018-07-09T22:02:37.618Z,22.50
2018-07-09T22:05:05.058Z,22.50
2018-07-09T22:07:32.277Z,22.50
2018-07-09T22:09:59.443Z,22.50
2018-07-09T22:12:26.659Z,22.50
2018-07-09T22:14:53.852Z,22.50
2018-07-09T22:17:21.047Z,22.50
2018-07-09T22:19:48.239Z,22.50
2018-07-09T22:22:15.451Z,22.50
2018-07-09T22:24:42.663Z,22.30
2018-07-09T22:27:09.872Z,22.30
2018-07-09T22:29:37.084Z,22.30
2018-07-09T22:32:05.231Z,22.20
2018-07-09T22:34:33.386Z,22.20
2018-07-09T22:37:01.547Z,22.10
2018-07-09T22:39:29.693Z,22.10
2018-07-09T22:41:57.846Z,22.10
2018-07-09T22:44:25.997Z,22.10
2018-07-09T22:46:54.455Z,22.00
2018-07-09T22:49:22.617Z,21.90
2018-07-09T22:51:50.766Z,21.90
2018-07-09T22:54:18.997Z,21.80
2018-07-09T22:56:47.150Z,21.80
2018-07-09T22:59:15.339Z,21.70
2018-07-09T23:01:43.508Z,21.70
2018-07-09T23:04:11.683Z,21.70
2018-07-09T23:06:39.844Z,21.60
2018-07-09T23:10:17.580Z,21.60
2018-07-09T23:13:25.148Z,21.50
2018-07-09T23:16:43.690Z,21.40
2018-07-09T23:19:24.933Z,21.30
2018-07-09T23:22:04.700Z,21.20
2018-07-09T23:24:31.980Z,21.20
2018-07-09T23:26:59.327Z,21.10
2018-07-09T23:29:26.540Z,21.20
2018-07-09T23:31:53.723Z,21.10
2018-07-09T23:36:48.382Z,21.00
2018-07-09T23:39:15.726Z,21.00
2018-07-09T23:41:42.910Z,21.00
2018-07-09T23:44:10.113Z,20.90
2018-07-09T23:46:37.299Z,20.90
2018-07-09T23:49:04.493Z,20.90
2018-07-09T23:51:31.681Z,20.90
2018-07-09T23:53:59.101Z,20.80
2018-07-09T23:56:44.675Z,20.80
2018-07-09T23:59:27.701Z,20.80
